Allgood, Alabama
Current Conditions -  °F | °C
As of 11:35 AM on Monday 24 Nov 2014 (Local Time) from KGAD Reporting Station
Clear Clear  
Wind Chill: 70°   Ceiling: Unl
Heat Index: 70°   Visibility: 10mi
Dew Point: 52°   Wind: 12mph
Humidity: 53%   Direction: 240°WSW
Pressure: 29.79"   Gusts: 23mph
Location:  33.91°N, 86.51°W
Report Text: KGAD 241735Z 24010G20KT 10SM CLR 21/11 A2979 RMK AO1
Loading
Personal Weather Stations






























Interactive Weather Map New forecast layout! Learn more

10-Day Weather Forecast

Advertisements
Track Severe Weather on mobile